Time;durP1;ratioP1;P1;durP2;ratioP2;P2;SDS_P1;SDS_P2;PMS_P1;PMS_P2;Temp;Humidity;BMP_temperature;BMP_pressure;BME280_temperature;BME280_humidity;BME280_pressure;Samples;Min_cycle;Max_cycle;Signal;HPM_P1;HPM_P2
2021/12/12 00:01:50;;;;;;;20.17;12.03;;;6.60;99.90;;;;;;5098971;28;20311;-90
2021/12/12 00:04:20;;;;;;;26.23;13.33;;;6.60;99.90;;;;;;5115798;28;20251;-88
2021/12/12 00:06:50;;;;;;;25.77;13.20;;;6.60;99.90;;;;;;5114521;28;20244;-89
2021/12/12 00:09:22;;;;;;;31.80;13.47;;;6.60;99.90;;;;;;5112542;28;20279;-88
2021/12/12 00:11:50;;;;;;;24.77;13.60;;;6.60;99.90;;;;;;5094521;28;20208;-87
2021/12/12 00:14:22;;;;;;;27.87;15.00;;;6.60;99.90;;;;;;5100026;28;20203;-90
2021/12/12 00:16:49;;;;;;;24.97;12.23;;;6.60;99.90;;;;;;5114958;28;20203;-88
2021/12/12 00:19:17;;;;;;;31.27;13.93;;;6.60;99.90;;;;;;5114788;28;20220;-89
2021/12/12 00:21:48;;;;;;;28.03;14.50;;;6.60;99.90;;;;;;5093537;28;20212;-89
2021/12/12 00:24:18;;;;;;;30.70;13.70;;;6.60;99.90;;;;;;5094132;28;20196;-90
2021/12/12 00:26:47;;;;;;;31.40;15.33;;;6.60;99.90;;;;;;5096498;28;20837;-91
2021/12/12 00:29:16;;;;;;;29.10;14.13;;;6.70;99.90;;;;;;5113331;28;20200;-91
2021/12/12 00:31:44;;;;;;;26.97;14.83;;;6.70;99.90;;;;;;5114767;28;20198;-92
2021/12/12 00:34:11;;;;;;;28.87;13.97;;;6.70;99.90;;;;;;5114043;28;20215;-91
2021/12/12 00:36:40;;;;;;;28.40;14.37;;;6.70;99.90;;;;;;5114119;28;20475;-89
2021/12/12 00:39:14;;;;;;;26.07;13.80;;;6.70;99.90;;;;;;5114605;28;20253;-91
2021/12/12 00:41:49;;;;;;;36.00;13.27;;;6.70;99.90;;;;;;5114214;28;20196;-92
2021/12/12 00:44:17;;;;;;;31.47;15.47;;;6.70;99.90;;;;;;5114346;28;20206;-91
2021/12/12 00:46:44;;;;;;;30.17;13.23;;;6.70;99.90;;;;;;5113284;28;20631;-91
2021/12/12 00:49:12;;;;;;;30.13;13.93;;;6.70;99.90;;;;;;5113483;28;20226;-89
2021/12/12 00:51:42;;;;;;;30.30;13.90;;;6.70;99.90;;;;;;5093656;28;20209;-89
2021/12/12 00:54:10;;;;;;;30.97;12.97;;;6.70;99.90;;;;;;5091493;28;20200;-91
2021/12/12 00:56:37;;;;;;;26.93;13.60;;;6.70;99.90;;;;;;5091746;28;20204;-90
2021/12/12 00:59:07;;;;;;;28.47;13.67;;;6.70;99.90;;;;;;5093930;28;20232;-91
2021/12/12 01:01:42;;;;;;;27.80;13.93;;;6.80;99.90;;;;;;5093521;28;20209;-89
2021/12/12 01:04:13;;;;;;;25.10;13.27;;;6.80;99.90;;;;;;5093827;28;20272;-89
2021/12/12 01:06:40;;;;;;;23.80;12.77;;;6.80;99.90;;;;;;5093323;28;20244;-89
2021/12/12 01:09:10;;;;;;;29.00;12.83;;;6.80;99.90;;;;;;5093812;28;20192;-89
2021/12/12 01:11:40;;;;;;;26.60;13.27;;;6.80;99.90;;;;;;5093623;28;20185;-91
2021/12/12 01:14:11;;;;;;;23.50;12.27;;;6.80;99.90;;;;;;5093100;28;20243;-89
2021/12/12 01:16:43;;;;;;;34.83;13.37;;;6.80;99.90;;;;;;5090146;28;20200;-88
2021/12/12 01:19:15;;;;;;;24.83;12.87;;;6.80;99.90;;;;;;5090520;28;20534;-90
2021/12/12 01:21:45;;;;;;;25.13;13.53;;;6.80;99.90;;;;;;5094637;28;20493;-89
2021/12/12 01:24:15;;;;;;;24.83;12.70;;;6.80;99.90;;;;;;5096503;28;20197;-89
2021/12/12 01:26:43;;;;;;;27.27;13.03;;;6.80;99.90;;;;;;5096337;28;20733;-89
2021/12/12 01:29:11;;;;;;;27.33;12.97;;;6.80;99.90;;;;;;5095667;28;20234;-88
2021/12/12 01:31:46;;;;;;;27.73;13.73;;;6.80;99.90;;;;;;5093703;28;20208;-90
2021/12/12 01:34:16;;;;;;;25.10;13.50;;;6.90;99.90;;;;;;5093032;28;20258;-89
2021/12/12 01:36:52;;;;;;;25.77;13.47;;;6.90;99.90;;;;;;5093552;28;20200;-89
2021/12/12 01:39:22;;;;;;;25.73;13.23;;;6.90;99.90;;;;;;5092801;28;20228;-90
2021/12/12 01:41:55;;;;;;;21.33;13.53;;;6.90;99.90;;;;;;5092945;28;20208;-90
2021/12/12 01:44:27;;;;;;;27.20;13.03;;;6.90;99.90;;;;;;5092532;28;20204;-90
2021/12/12 01:47:03;;;;;;;31.00;13.40;;;6.90;99.90;;;;;;5092758;28;20275;-91
2021/12/12 01:49:32;;;;;;;24.40;13.10;;;6.90;99.90;;;;;;5092226;28;20200;-87
2021/12/12 01:52:00;;;;;;;24.70;13.10;;;6.90;99.90;;;;;;5092497;28;20197;-89
2021/12/12 01:54:31;;;;;;;19.57;12.33;;;6.90;99.90;;;;;;5092171;28;20200;-88
2021/12/12 01:57:00;;;;;;;27.40;13.57;;;7.00;99.90;;;;;;5112116;28;20206;-87
2021/12/12 01:59:33;;;;;;;25.30;13.27;;;7.00;99.90;;;;;;5104783;28;20229;-89
2021/12/12 02:02:04;;;;;;;24.53;12.93;;;6.90;99.90;;;;;;5092133;28;20200;-88
2021/12/12 02:04:35;;;;;;;21.27;12.27;;;6.90;99.90;;;;;;5091957;28;20216;-87
2021/12/12 02:07:04;;;;;;;23.80;12.53;;;7.00;99.90;;;;;;5104743;28;20244;-87
2021/12/12 02:09:32;;;;;;;20.20;10.30;;;7.00;99.90;;;;;;5092463;28;20193;-87
2021/12/12 02:12:00;;;;;;;22.43;11.47;;;7.10;99.90;;;;;;5092666;28;20200;-88
2021/12/12 02:14:32;;;;;;;19.97;10.63;;;7.00;99.90;;;;;;5091825;28;20209;-87
2021/12/12 02:17:03;;;;;;;14.07;11.13;;;7.10;99.90;;;;;;5092416;28;20204;-88
2021/12/12 02:19:38;;;;;;;18.87;9.60;;;7.00;99.90;;;;;;5090978;28;20228;-91
2021/12/12 02:22:28;;;;;;;17.80;9.20;;;7.10;99.90;;;;;;5092165;28;20206;-89
2021/12/12 02:35:56;;;;;;;10.57;8.03;;;7.30;99.90;;;;;;5112531;28;20530;-92
2021/12/12 02:38:27;;;;;;;13.77;8.03;;;7.30;99.90;;;;;;5102561;28;20624;-91
2021/12/12 02:40:58;;;;;;;18.20;7.80;;;7.40;99.90;;;;;;5092522;28;20212;-90
2021/12/12 02:43:27;;;;;;;10.47;6.80;;;7.40;99.90;;;;;;5092429;28;20205;-89
2021/12/12 02:45:56;;;;;;;10.83;7.27;;;7.50;99.90;;;;;;5108552;28;20206;-88
2021/12/12 02:48:30;;;;;;;12.53;7.50;;;7.50;99.90;;;;;;5112994;28;20288;-87
2021/12/12 02:51:02;;;;;;;11.43;7.13;;;7.50;99.90;;;;;;5113480;28;20287;-90
2021/12/12 02:53:34;;;;;;;11.20;7.73;;;7.50;99.90;;;;;;5117068;28;20185;-90
2021/12/12 02:56:04;;;;;;;13.13;8.17;;;7.50;99.90;;;;;;5123638;28;20219;-87
2021/12/12 02:58:31;;;;;;;10.47;8.43;;;7.60;99.90;;;;;;5125616;28;20211;-89
2021/12/12 03:01:05;;;;;;;16.13;8.73;;;7.60;99.90;;;;;;5117243;28;20228;-90
2021/12/12 03:03:35;;;;;;;13.87;8.77;;;7.60;99.90;;;;;;5102903;28;20224;-89
2021/12/12 03:06:10;;;;;;;14.83;10.13;;;7.60;99.90;;;;;;5097318;28;20200;-90
2021/12/12 03:08:41;;;;;;;16.00;9.90;;;7.60;99.90;;;;;;5097288;28;20207;-90
2021/12/12 03:11:09;;;;;;;16.00;10.27;;;7.60;99.90;;;;;;5097178;28;20211;-91
2021/12/12 03:13:37;;;;;;;16.33;10.00;;;7.60;99.90;;;;;;5096922;28;20208;-90
2021/12/12 03:16:05;;;;;;;13.70;9.27;;;7.70;99.90;;;;;;5117682;28;20611;-90
2021/12/12 03:18:39;;;;;;;18.90;9.97;;;7.60;99.90;;;;;;5118060;28;20809;-90
2021/12/12 03:21:15;;;;;;;19.37;10.67;;;7.70;99.90;;;;;;5118450;28;20212;-91
2021/12/12 03:23:47;;;;;;;19.40;11.73;;;7.70;99.90;;;;;;5098022;28;20200;-91
2021/12/12 03:26:15;;;;;;;17.80;11.67;;;7.70;99.90;;;;;;5110676;28;20199;-91
2021/12/12 03:28:45;;;;;;;21.10;12.50;;;7.70;99.90;;;;;;5112407;28;20212;-91
2021/12/12 03:31:17;;;;;;;18.23;10.67;;;7.70;99.90;;;;;;5104298;28;20218;-91
2021/12/12 03:33:45;;;;;;;20.00;12.17;;;7.70;99.90;;;;;;5102972;28;20291;-89
2021/12/12 03:36:14;;;;;;;22.63;12.27;;;7.70;99.90;;;;;;5101483;28;20205;-90
2021/12/12 03:38:45;;;;;;;22.83;12.77;;;7.80;99.90;;;;;;5097390;28;20216;-89
2021/12/12 03:41:16;;;;;;;21.10;12.33;;;7.80;99.90;;;;;;5094858;28;20220;-89
2021/12/12 03:43:45;;;;;;;19.23;13.07;;;7.80;99.90;;;;;;5094921;28;20216;-89
2021/12/12 03:46:12;;;;;;;23.83;13.37;;;7.80;99.90;;;;;;5095137;28;20208;-91
2021/12/12 03:48:41;;;;;;;24.60;13.83;;;7.80;99.90;;;;;;5095111;28;20207;-91
2021/12/12 03:51:11;;;;;;;24.37;13.20;;;7.80;99.90;;;;;;5095497;28;20698;-89
2021/12/12 03:53:40;;;;;;;18.80;12.10;;;7.90;99.90;;;;;;5096086;28;20215;-87
2021/12/12 03:56:10;;;;;;;19.07;12.37;;;7.90;99.90;;;;;;5115510;28;20502;-91
2021/12/12 03:58:38;;;;;;;22.80;12.83;;;7.90;99.90;;;;;;5109810;28;20956;-89
2021/12/12 04:01:10;;;;;;;24.13;13.60;;;7.90;99.90;;;;;;5092251;28;20236;-90
2021/12/12 04:03:39;;;;;;;23.50;13.60;;;7.90;99.90;;;;;;5094774;28;20231;-89
2021/12/12 04:06:10;;;;;;;21.00;12.87;;;7.90;99.90;;;;;;5094994;28;20220;-89
2021/12/12 04:08:40;;;;;;;22.70;13.83;;;7.90;99.90;;;;;;5095057;28;20192;-90
2021/12/12 04:11:15;;;;;;;20.43;13.83;;;8.00;99.90;;;;;;5095370;28;20200;-90
2021/12/12 04:13:45;;;;;;;29.10;14.67;;;8.00;99.90;;;;;;5094290;28;20207;-89
2021/12/12 04:16:12;;;;;;;23.90;14.30;;;8.00;99.90;;;;;;5111109;28;20223;-90
2021/12/12 04:18:40;;;;;;;23.93;13.57;;;8.00;99.90;;;;;;5114920;28;20261;-90
2021/12/12 04:21:07;;;;;;;19.20;13.33;;;8.00;99.90;;;;;;5115090;28;20639;-90
2021/12/12 04:23:34;;;;;;;30.07;14.83;;;8.00;99.90;;;;;;5120157;28;20204;-89
2021/12/12 04:26:16;;;;;;;29.13;15.53;;;8.10;99.90;;;;;;5123570;28;20204;-89
2021/12/12 04:28:43;;;;;;;25.00;14.70;;;8.10;99.90;;;;;;5115187;28;20279;-92
2021/12/12 04:31:10;;;;;;;29.53;15.50;;;8.10;99.90;;;;;;5114757;28;20208;-89
2021/12/12 04:33:37;;;;;;;26.33;14.20;;;8.10;99.90;;;;;;5114821;28;20244;-90
2021/12/12 04:36:06;;;;;;;32.77;15.97;;;8.10;99.90;;;;;;5114902;28;20199;-91
2021/12/12 04:38:33;;;;;;;27.87;15.80;;;8.10;99.90;;;;;;5106884;28;20305;-90
2021/12/12 04:41:00;;;;;;;27.60;16.23;;;8.10;99.90;;;;;;5093896;28;20220;-90
2021/12/12 04:43:29;;;;;;;30.27;16.90;;;8.20;99.90;;;;;;5093814;28;20208;-88
2021/12/12 04:46:08;;;;;;;35.27;17.13;;;8.20;99.90;;;;;;5112165;28;20200;-89
2021/12/12 04:51:37;;;;;;;28.87;15.93;;;8.20;99.90;;;;;;5094534;28;20479;-89
2021/12/12 04:54:12;;;;;;;37.77;17.40;;;8.20;99.90;;;;;;5094593;28;20200;-88
2021/12/12 04:56:50;;;;;;;27.90;17.17;;;8.20;99.90;;;;;;5103105;28;20314;-88
2021/12/12 04:59:24;;;;;;;34.77;18.63;;;8.20;99.90;;;;;;5114425;28;20195;-90
2021/12/12 05:02:00;;;;;;;33.97;19.00;;;8.20;99.90;;;;;;5114693;28;20231;-91
2021/12/12 05:04:31;;;;;;;38.07;19.37;;;8.30;99.90;;;;;;5113530;28;20254;-90
2021/12/12 05:07:05;;;;;;;36.27;20.20;;;8.30;99.90;;;;;;5099288;28;20263;-89
2021/12/12 05:09:39;;;;;;;35.87;19.30;;;8.30;99.90;;;;;;5094707;28;20761;-91
2021/12/12 05:12:14;;;;;;;41.23;21.50;;;8.30;99.90;;;;;;5093683;28;20279;-89
2021/12/12 05:14:51;;;;;;;39.40;20.63;;;8.40;99.90;;;;;;5092660;28;20203;-89
2021/12/12 05:17:22;;;;;;;38.10;20.63;;;8.40;99.90;;;;;;5092843;28;20208;-90
2021/12/12 05:19:53;;;;;;;42.37;20.07;;;8.50;99.90;;;;;;5093041;28;20200;-90
2021/12/12 05:22:26;;;;;;;48.40;21.43;;;8.40;99.90;;;;;;5093027;28;20821;-89
2021/12/12 05:24:54;;;;;;;41.37;21.23;;;8.40;99.90;;;;;;5093089;28;20462;-90
2021/12/12 05:27:24;;;;;;;36.07;20.77;;;8.50;99.90;;;;;;5093604;28;20204;-89
2021/12/12 05:30:00;;;;;;;39.30;21.70;;;8.50;99.90;;;;;;5093201;28;20205;-89
2021/12/12 05:32:29;;;;;;;49.37;20.93;;;8.50;99.90;;;;;;5088099;28;20235;-90
2021/12/12 05:34:57;;;;;;;53.03;22.03;;;8.50;99.90;;;;;;5093388;28;20208;-90
2021/12/12 05:37:25;;;;;;;46.97;21.70;;;8.60;99.90;;;;;;5100259;28;20897;-92
2021/12/12 05:39:53;;;;;;;45.47;21.70;;;8.60;99.90;;;;;;5112580;28;20204;-92
2021/12/12 05:42:21;;;;;;;60.47;23.10;;;8.60;99.90;;;;;;5094254;28;20213;-90
2021/12/12 05:44:49;;;;;;;60.73;24.30;;;8.60;99.90;;;;;;5098774;28;20196;-84
2021/12/12 05:47:19;;;;;;;60.13;25.17;;;8.60;99.90;;;;;;5113834;28;20203;-87
2021/12/12 05:49:46;;;;;;;46.63;23.33;;;8.60;99.90;;;;;;5114240;28;20208;-91
2021/12/12 05:52:16;;;;;;;49.93;23.83;;;8.60;99.90;;;;;;5109835;28;20212;-87
2021/12/12 05:54:45;;;;;;;51.60;22.03;;;8.60;99.90;;;;;;5097662;28;20204;-89
2021/12/12 05:57:13;;;;;;;54.17;22.97;;;8.70;99.90;;;;;;5093440;28;20201;-92
2021/12/12 05:59:41;;;;;;;56.73;24.37;;;8.70;99.90;;;;;;5092131;28;20235;-89
2021/12/12 06:02:08;;;;;;;50.33;24.20;;;8.70;99.90;;;;;;5092446;28;20235;-89
2021/12/12 06:04:37;;;;;;;51.37;23.17;;;8.80;99.90;;;;;;5092446;28;20220;-90
2021/12/12 06:07:05;;;;;;;52.17;24.57;;;8.80;99.90;;;;;;5092513;28;20243;-89
2021/12/12 06:09:34;;;;;;;54.53;24.40;;;8.70;99.90;;;;;;5103137;28;20215;-89
2021/12/12 06:12:04;;;;;;;47.97;22.50;;;8.80;99.90;;;;;;5112442;28;20206;-88
2021/12/12 06:14:32;;;;;;;55.97;23.20;;;8.80;99.90;;;;;;5111549;28;20203;-88
2021/12/12 06:17:00;;;;;;;49.87;24.30;;;8.80;99.90;;;;;;5113292;28;20203;-90
2021/12/12 06:19:31;;;;;;;53.30;23.40;;;8.80;99.90;;;;;;5112840;28;20254;-88
2021/12/12 06:22:01;;;;;;;59.60;23.67;;;8.80;99.90;;;;;;5112998;28;20211;-89
2021/12/12 06:24:30;;;;;;;55.63;25.43;;;8.80;99.90;;;;;;5112347;28;20622;-87
2021/12/12 06:27:03;;;;;;;68.17;26.37;;;8.90;99.90;;;;;;5115034;28;20199;-90
2021/12/12 06:29:30;;;;;;;57.27;24.90;;;8.90;99.90;;;;;;5102693;28;20212;-87
2021/12/12 06:31:59;;;;;;;63.30;26.23;;;8.90;99.90;;;;;;5096680;28;20439;-88
2021/12/12 06:34:25;;;;;;;61.33;24.90;;;9.00;99.90;;;;;;5096214;28;20234;-88
2021/12/12 06:36:53;;;;;;;65.70;25.47;;;9.00;99.90;;;;;;5096659;28;20200;-89
2021/12/12 06:39:22;;;;;;;66.20;26.57;;;9.00;99.90;;;;;;5097668;28;20596;-89
2021/12/12 06:41:50;;;;;;;61.20;23.80;;;9.10;99.90;;;;;;5116350;28;20640;-88
2021/12/12 06:44:18;;;;;;;70.57;24.87;;;9.10;99.90;;;;;;5112333;28;20215;-90
2021/12/12 06:46:46;;;;;;;64.27;24.47;;;9.10;99.90;;;;;;5096872;28;20201;-90
2021/12/12 06:49:16;;;;;;;44.93;21.67;;;9.10;99.90;;;;;;5096102;28;20201;-89
2021/12/12 06:51:46;;;;;;;63.83;22.43;;;9.10;99.90;;;;;;5095967;28;20827;-87
2021/12/12 06:54:17;;;;;;;48.27;22.43;;;9.10;99.90;;;;;;5101330;28;20220;-89
2021/12/12 06:56:47;;;;;;;50.23;20.23;;;9.20;99.90;;;;;;5116553;28;20199;-89
2021/12/12 06:59:14;;;;;;;47.73;20.03;;;9.20;99.90;;;;;;5116772;28;20200;-89
2021/12/12 07:01:41;;;;;;;47.30;20.70;;;9.30;99.90;;;;;;5115683;28;20232;-89
2021/12/12 07:04:11;;;;;;;43.50;19.80;;;9.30;99.90;;;;;;5100304;28;20679;-88
2021/12/12 07:06:40;;;;;;;44.00;19.30;;;9.30;99.90;;;;;;5093311;28;20765;-91
2021/12/12 07:09:10;;;;;;;42.97;19.20;;;9.40;99.90;;;;;;5097020;28;20506;-88
2021/12/12 07:11:38;;;;;;;43.97;19.30;;;9.30;99.90;;;;;;5096245;28;20207;-87
2021/12/12 07:14:09;;;;;;;43.33;19.13;;;9.40;99.90;;;;;;5096363;28;20205;-90
2021/12/12 07:16:37;;;;;;;39.37;17.80;;;9.50;99.90;;;;;;5095573;28;20208;-89
2021/12/12 07:19:05;;;;;;;43.80;18.33;;;9.50;99.90;;;;;;5096091;28;20576;-86
2021/12/12 07:21:33;;;;;;;49.47;17.70;;;9.50;99.90;;;;;;5111954;28;20223;-89
2021/12/12 07:24:02;;;;;;;53.57;20.17;;;9.50;99.90;;;;;;5116403;28;20592;-89
2021/12/12 07:26:30;;;;;;;49.47;20.00;;;9.50;99.90;;;;;;5115730;28;20207;-90
2021/12/12 07:28:58;;;;;;;51.60;19.50;;;9.60;99.90;;;;;;5115257;28;20597;-88
2021/12/12 07:31:30;;;;;;;41.30;18.27;;;9.60;99.90;;;;;;5099872;28;20757;-92
2021/12/12 07:33:59;;;;;;;47.80;18.37;;;9.60;99.90;;;;;;5095602;28;20205;-90
2021/12/12 07:36:31;;;;;;;49.17;20.20;;;9.60;99.90;;;;;;5108981;28;20204;-89
2021/12/12 07:39:02;;;;;;;48.13;17.90;;;9.60;99.90;;;;;;5115051;28;20605;-90
2021/12/12 07:41:32;;;;;;;44.73;18.33;;;9.60;99.90;;;;;;5115346;28;20220;-92
2021/12/12 07:44:00;;;;;;;48.90;17.30;;;9.60;99.90;;;;;;5098827;28;20204;-93
2021/12/12 07:46:30;;;;;;;52.63;18.60;;;9.60;99.90;;;;;;5094528;28;20204;-91
2021/12/12 07:48:57;;;;;;;38.87;15.57;;;9.70;99.90;;;;;;5095188;28;20204;-90
2021/12/12 07:51:25;;;;;;;42.33;16.60;;;9.70;99.90;;;;;;5094569;28;20212;-89
2021/12/12 07:53:55;;;;;;;45.30;15.67;;;9.70;99.90;;;;;;5094626;28;20725;-90
2021/12/12 07:56:24;;;;;;;38.53;17.23;;;9.60;99.90;;;;;;5094925;28;20207;-89
2021/12/12 07:58:51;;;;;;;45.97;17.00;;;9.60;99.90;;;;;;5094627;28;20207;-90
2021/12/12 08:01:18;;;;;;;36.07;14.53;;;9.70;99.90;;;;;;5097317;28;20242;-90
2021/12/12 08:03:47;;;;;;;30.03;12.23;;;9.70;99.90;;;;;;5115037;28;20215;-91
2021/12/12 08:06:28;;;;;;;27.73;12.60;;;9.70;99.90;;;;;;5097205;28;20258;-91
2021/12/12 08:08:56;;;;;;;35.93;13.70;;;9.70;99.90;;;;;;5064741;28;20236;-88
2021/12/12 08:11:28;;;;;;;29.20;12.50;;;9.70;99.90;;;;;;5093944;28;20207;-91
2021/12/12 08:13:56;;;;;;;24.87;10.20;;;9.70;99.90;;;;;;5094120;28;20208;-90
2021/12/12 08:16:23;;;;;;;32.10;11.97;;;9.70;99.90;;;;;;5094270;28;20201;-92
2021/12/12 08:18:53;;;;;;;34.30;13.50;;;9.70;99.90;;;;;;5094505;28;20196;-90
2021/12/12 08:21:23;;;;;;;31.30;12.70;;;9.70;99.90;;;;;;5095195;28;20229;-91
2021/12/12 08:23:53;;;;;;;31.20;12.33;;;9.70;99.90;;;;;;5091776;28;20780;-88
2021/12/12 08:26:21;;;;;;;30.20;11.20;;;9.70;99.90;;;;;;5094803;28;20254;-89
2021/12/12 08:28:49;;;;;;;30.53;10.53;;;9.80;99.90;;;;;;5098118;28;20336;-89
2021/12/12 08:31:16;;;;;;;29.77;10.73;;;9.80;99.90;;;;;;5115676;28;20622;-90
2021/12/12 08:33:43;;;;;;;22.93;10.27;;;9.80;99.90;;;;;;5116100;28;20223;-89
2021/12/12 08:36:14;;;;;;;22.90;10.67;;;9.70;99.90;;;;;;5115438;28;20389;-91
2021/12/12 08:38:41;;;;;;;25.97;10.80;;;9.70;99.90;;;;;;5114762;28;20218;-90
2021/12/12 08:41:08;;;;;;;34.27;12.23;;;9.80;99.90;;;;;;5116033;28;20223;-93
2021/12/12 08:43:36;;;;;;;30.10;11.70;;;9.80;99.90;;;;;;5114423;28;20208;-89
2021/12/12 08:46:07;;;;;;;24.10;10.77;;;9.80;99.90;;;;;;5095342;28;20205;-90
2021/12/12 08:48:37;;;;;;;23.90;11.07;;;9.80;99.90;;;;;;5097035;28;20208;-88
2021/12/12 08:51:06;;;;;;;25.13;11.67;;;9.80;99.90;;;;;;5097936;28;20212;-90
2021/12/12 08:53:36;;;;;;;22.40;11.50;;;9.80;99.90;;;;;;5093726;28;20203;-90
2021/12/12 08:56:04;;;;;;;26.43;11.40;;;9.90;99.90;;;;;;5093895;28;20213;-90
2021/12/12 08:58:34;;;;;;;18.83;9.83;;;9.90;99.90;;;;;;5092720;28;20527;-91
2021/12/12 09:01:05;;;;;;;21.33;11.10;;;9.90;99.90;;;;;;5093578;28;20569;-90
2021/12/12 09:03:40;;;;;;;20.67;10.00;;;9.90;99.90;;;;;;5093425;28;20231;-92
2021/12/12 09:06:09;;;;;;;18.47;9.90;;;9.90;99.90;;;;;;5093968;28;20196;-90
2021/12/12 09:08:43;;;;;;;19.60;9.80;;;9.90;99.90;;;;;;5109514;28;20735;-87
2021/12/12 09:11:18;;;;;;;24.20;10.97;;;9.80;99.90;;;;;;5113659;28;20192;-92
2021/12/12 09:13:49;;;;;;;21.73;10.23;;;9.90;99.90;;;;;;5095505;28;20200;-91
2021/12/12 09:16:22;;;;;;;27.43;11.10;;;9.90;99.90;;;;;;5113966;28;20476;-92
2021/12/12 09:18:53;;;;;;;21.37;10.67;;;9.90;99.90;;;;;;5113397;28;20200;-89
2021/12/12 09:21:26;;;;;;;17.80;8.43;;;9.90;99.90;;;;;;5114062;28;20211;-88
2021/12/12 09:24:06;;;;;;;15.53;9.63;;;9.90;99.90;;;;;;5111943;27;20199;-89
2021/12/12 09:26:36;;;;;;;15.67;9.90;;;9.90;99.90;;;;;;5113055;28;20204;-89
2021/12/12 09:29:10;;;;;;;19.07;8.80;;;10.00;99.90;;;;;;5116505;27;20203;-90
2021/12/12 09:31:41;;;;;;;17.93;8.90;;;10.00;99.90;;;;;;5133225;27;20187;-92
2021/12/12 09:34:12;;;;;;;19.87;10.17;;;10.00;99.90;;;;;;5133649;27;20611;-89
2021/12/12 09:36:42;;;;;;;17.77;10.90;;;10.00;99.90;;;;;;5116513;27;20206;-90
2021/12/12 09:39:13;;;;;;;19.43;11.13;;;10.00;99.90;;;;;;5112790;28;20252;-89
2021/12/12 09:42:05;;;;;;;19.30;10.10;;;10.10;99.90;;;;;;5113021;28;20250;-89
2021/12/12 09:44:48;;;;;;;17.80;10.43;;;10.10;99.90;;;;;;5114679;27;20547;-90
2021/12/12 09:47:35;;;;;;;22.43;10.60;;;10.10;99.90;;;;;;5120304;27;20219;-89
2021/12/12 09:53:29;;;;;;;17.70;9.30;;;10.10;99.90;;;;;;5113186;28;20183;-88
2021/12/12 09:56:03;;;;;;;15.73;9.00;;;10.10;99.90;;;;;;5113109;28;20192;-89
2021/12/12 09:58:41;;;;;;;16.37;10.97;;;10.10;99.90;;;;;;5112353;28;20218;-91
2021/12/12 10:01:12;;;;;;;19.23;11.67;;;10.20;99.90;;;;;;5113292;28;20256;-91
2021/12/12 10:03:50;;;;;;;18.20;9.73;;;10.10;99.90;;;;;;5113057;28;20230;-90
2021/12/12 10:06:29;;;;;;;15.93;9.23;;;10.20;99.90;;;;;;5112615;28;20568;-90
2021/12/12 10:09:03;;;;;;;17.63;10.10;;;10.10;99.90;;;;;;5111390;28;20239;-92
2021/12/12 10:11:39;;;;;;;17.87;11.03;;;10.10;99.90;;;;;;5117230;28;20208;-89
2021/12/12 10:14:13;;;;;;;15.77;10.67;;;10.10;99.90;;;;;;5119224;28;20211;-93
2021/12/12 10:16:47;;;;;;;19.73;10.90;;;10.10;99.90;;;;;;5121683;28;20644;-89
2021/12/12 10:19:27;;;;;;;20.87;11.63;;;10.10;99.90;;;;;;5119169;28;20203;-89
2021/12/12 10:22:14;;;;;;;15.60;9.73;;;10.20;99.90;;;;;;5114719;28;20234;-91
2021/12/12 10:24:45;;;;;;;15.83;10.53;;;10.10;99.90;;;;;;5112853;28;20200;-91
2021/12/12 10:27:19;;;;;;;25.93;13.13;;;10.10;99.90;;;;;;5112952;28;20195;-89
2021/12/12 10:29:56;;;;;;;26.20;13.47;;;10.20;99.90;;;;;;5112867;28;20204;-92
2021/12/12 10:32:28;;;;;;;29.43;15.10;;;10.20;99.90;;;;;;5112652;28;20208;-89
2021/12/12 10:35:03;;;;;;;28.30;15.47;;;10.20;99.90;;;;;;5112757;28;20184;-91
2021/12/12 10:37:35;;;;;;;29.50;15.13;;;10.30;99.90;;;;;;5112334;28;20908;-92
2021/12/12 10:40:07;;;;;;;29.17;16.17;;;10.30;99.90;;;;;;5128703;28;20207;-91
2021/12/12 10:42:46;;;;;;;27.30;16.13;;;10.30;99.90;;;;;;5112273;28;20496;-92
2021/12/12 10:45:18;;;;;;;34.10;17.07;;;10.40;99.90;;;;;;5125174;28;20207;-90
2021/12/12 10:47:54;;;;;;;30.50;15.20;;;10.50;99.90;;;;;;5132720;28;20192;-90
2021/12/12 10:50:29;;;;;;;26.50;14.30;;;10.50;99.90;;;;;;5117932;27;20615;-90
2021/12/12 10:53:04;;;;;;;28.70;14.10;;;10.50;99.90;;;;;;5112765;28;20196;-90
2021/12/12 10:55:36;;;;;;;31.23;15.63;;;10.50;99.90;;;;;;5111986;28;20200;-87
2021/12/12 10:58:11;;;;;;;27.97;15.93;;;10.50;99.90;;;;;;5131668;28;20204;-88
2021/12/12 11:00:42;;;;;;;23.33;12.73;;;10.50;99.90;;;;;;5111447;28;20241;-88
2021/12/12 11:03:15;;;;;;;23.53;12.90;;;10.50;99.90;;;;;;5111449;28;20357;-89
2021/12/12 11:05:46;;;;;;;27.03;12.63;;;10.60;99.90;;;;;;5112191;28;20207;-91
2021/12/12 11:08:22;;;;;;;31.33;15.70;;;10.50;99.90;;;;;;5112440;28;20239;-90
2021/12/12 11:10:53;;;;;;;35.50;15.57;;;10.50;99.90;;;;;;5112195;28;20200;-89
2021/12/12 11:13:26;;;;;;;33.97;16.00;;;10.50;99.90;;;;;;5113343;28;20937;-89
2021/12/12 11:15:55;;;;;;;37.93;15.40;;;10.50;99.90;;;;;;5115163;28;20598;-92
2021/12/12 11:18:29;;;;;;;35.37;18.03;;;10.50;99.90;;;;;;5115799;28;20196;-93
2021/12/12 11:21:01;;;;;;;31.43;14.53;;;10.50;99.90;;;;;;5116377;28;20415;-92
2021/12/12 11:23:34;;;;;;;26.73;13.63;;;10.60;99.90;;;;;;5115625;28;20612;-95
2021/12/12 11:26:05;;;;;;;22.83;12.53;;;10.60;99.90;;;;;;5116204;28;20199;-93
2021/12/12 11:28:36;;;;;;;22.93;11.97;;;10.60;99.90;;;;;;5115691;28;20210;-92
2021/12/12 11:31:09;;;;;;;17.70;10.03;;;10.60;99.90;;;;;;5116591;28;20215;-94
2021/12/12 11:33:37;;;;;;;16.67;10.13;;;10.70;99.90;;;;;;5116545;28;20200;-93
2021/12/12 11:36:08;;;;;;;18.00;9.50;;;10.70;99.90;;;;;;5116930;28;20507;-93
2021/12/12 11:38:41;;;;;;;14.93;9.23;;;10.70;99.90;;;;;;5116294;28;20291;-91
2021/12/12 11:41:17;;;;;;;17.63;10.20;;;10.70;99.90;;;;;;5116196;28;20204;-91
2021/12/12 11:43:54;;;;;;;14.17;8.60;;;10.70;99.90;;;;;;5118003;28;20230;-89
2021/12/12 11:46:29;;;;;;;16.57;8.53;;;10.70;99.90;;;;;;5139079;27;20859;-91
2021/12/12 11:49:05;;;;;;;19.00;10.40;;;10.80;99.90;;;;;;5136838;27;20199;-91
2021/12/12 11:51:36;;;;;;;23.07;12.67;;;10.80;99.90;;;;;;5134190;27;20275;-92
2021/12/12 11:54:10;;;;;;;28.47;12.90;;;10.80;99.90;;;;;;5135819;27;20238;-93
2021/12/12 11:56:45;;;;;;;25.00;13.43;;;10.80;99.90;;;;;;5135779;27;20234;-92
2021/12/12 11:59:18;;;;;;;33.53;15.00;;;10.80;99.90;;;;;;5135794;27;20209;-92
2021/12/12 12:01:53;;;;;;;35.07;16.33;;;10.90;99.90;;;;;;5123659;27;20212;-90
2021/12/12 12:04:37;;;;;;;34.03;16.97;;;10.90;99.90;;;;;;5114959;28;20680;-89
2021/12/12 12:07:13;;;;;;;30.53;14.77;;;11.00;99.90;;;;;;5114631;28;20230;-92
2021/12/12 12:09:49;;;;;;;31.63;14.83;;;11.10;99.90;;;;;;5114252;28;20208;-84
2021/12/12 12:12:24;;;;;;;29.53;11.90;;;11.40;99.90;;;;;;5114637;28;20218;-88
2021/12/12 12:15:06;;;;;;;30.90;12.07;;;11.40;99.90;;;;;;5114952;28;20204;-87
2021/12/12 12:17:47;;;;;;;29.20;10.80;;;11.50;99.90;;;;;;5114303;28;20208;-90
2021/12/12 12:20:27;;;;;;;26.70;10.57;;;11.50;99.90;;;;;;5114375;28;20207;-88
2021/12/12 12:23:16;;;;;;;31.13;12.97;;;11.60;99.90;;;;;;5114445;28;20276;-88
2021/12/12 12:28:42;;;;;;;27.00;13.80;;;11.70;99.90;;;;;;5114273;28;20183;-89
2021/12/12 12:31:47;;;;;;;33.87;15.10;;;11.70;99.90;;;;;;5114673;28;20576;-89
2021/12/12 12:35:14;;;;;;;30.40;13.77;;;11.70;99.90;;;;;;5114259;28;20203;-89
2021/12/12 12:38:26;;;;;;;34.97;15.93;;;11.70;99.90;;;;;;5071582;28;20209;-89
2021/12/12 12:41:35;;;;;;;36.73;15.40;;;11.70;99.90;;;;;;5114003;28;20776;-89
2021/12/12 12:44:38;;;;;;;35.03;16.93;;;11.70;99.90;;;;;;5127289;27;20227;-88
2021/12/12 12:47:48;;;;;;;40.70;17.00;;;11.70;99.90;;;;;;5113763;28;20191;-90
2021/12/12 12:50:42;;;;;;;37.77;14.33;;;11.70;99.90;;;;;;5113942;28;20218;-88
2021/12/12 12:53:40;;;;;;;37.10;14.57;;;11.70;99.90;;;;;;5113356;27;20614;-87
2021/12/12 12:56:16;;;;;;;26.17;13.30;;;11.70;99.90;;;;;;5134026;27;20200;-87
2021/12/12 12:59:19;;;;;;;29.40;12.00;;;11.70;99.90;;;;;;5134021;27;20210;-89
2021/12/12 13:01:58;;;;;;;27.30;10.00;;;11.70;99.90;;;;;;5113359;28;20202;-90
2021/12/12 13:04:30;;;;;;;27.33;11.63;;;11.70;99.90;;;;;;5119141;27;20223;-88
2021/12/12 13:07:17;;;;;;;29.70;12.67;;;11.70;99.90;;;;;;5132864;27;20377;-89
2021/12/12 13:09:53;;;;;;;30.10;12.00;;;11.70;99.90;;;;;;5132084;27;20584;-89
2021/12/12 13:12:58;;;;;;;25.30;11.60;;;11.70;99.90;;;;;;5132291;27;20198;-86
2021/12/12 13:15:37;;;;;;;33.10;11.00;;;11.70;99.90;;;;;;5128801;27;20225;-88
2021/12/12 13:18:17;;;;;;;26.80;10.97;;;11.70;99.90;;;;;;5127769;27;20608;-90
2021/12/12 13:20:56;;;;;;;26.67;10.37;;;11.70;99.90;;;;;;5111387;28;20519;-86
2021/12/12 13:23:55;;;;;;;25.43;8.37;;;11.70;99.90;;;;;;5130232;27;20206;-89